createdAt,value
2023-02-08T00:01:26.486Z,11.93
2023-02-08T00:03:55.067Z,10.07
2023-02-08T00:06:23.506Z,15.27
2023-02-08T00:08:53.514Z,13.63
2023-02-08T00:11:21.858Z,10.47
2023-02-08T00:13:49.985Z,10.10
2023-02-08T00:16:18.565Z,12.40
2023-02-08T00:18:46.997Z,10.87
2023-02-08T00:21:17.790Z,10.13
2023-02-08T00:23:47.075Z,15.83
2023-02-08T00:26:17.522Z,14.60
2023-02-08T00:28:45.758Z,12.53
2023-02-08T00:31:14.181Z,13.63
2023-02-08T00:33:42.564Z,15.10
2023-02-08T00:36:12.394Z,12.53
2023-02-08T00:38:41.157Z,18.27
2023-02-08T00:41:10.313Z,12.50
2023-02-08T00:43:39.962Z,11.93
2023-02-08T00:46:09.932Z,11.67
2023-02-08T00:48:38.488Z,14.23
2023-02-08T00:51:08.923Z,15.10
2023-02-08T00:53:38.478Z,14.80
2023-02-08T00:56:08.006Z,12.10
2023-02-08T00:58:37.072Z,12.27
2023-02-08T01:01:09.444Z,11.23
2023-02-08T01:03:40.974Z,11.97
2023-02-08T01:06:11.036Z,11.30
2023-02-08T01:08:39.748Z,11.43
2023-02-08T01:11:09.741Z,11.13
2023-02-08T01:13:38.530Z,12.77
2023-02-08T01:16:14.329Z,12.30
2023-02-08T01:18:44.528Z,14.33
2023-02-08T01:21:15.177Z,12.93
2023-02-08T01:23:44.572Z,16.67
2023-02-08T01:26:13.954Z,13.77
2023-02-08T01:28:42.433Z,13.93
2023-02-08T01:31:14.126Z,12.47
2023-02-08T01:33:42.877Z,12.03
2023-02-08T01:36:11.760Z,13.10
2023-02-08T01:38:40.386Z,15.00
2023-02-08T01:41:12.774Z,12.90
2023-02-08T01:44:07.385Z,14.80
2023-02-08T01:46:39.148Z,13.57
2023-02-08T01:49:12.862Z,13.40
2023-02-08T01:51:43.580Z,15.63
2023-02-08T01:54:14.124Z,20.23
2023-02-08T01:56:46.269Z,12.53
2023-02-08T01:59:19.356Z,12.07
2023-02-08T02:01:52.454Z,13.13
2023-02-08T02:04:21.000Z,16.87
2023-02-08T02:06:53.249Z,13.17
2023-02-08T02:09:26.666Z,16.77
2023-02-08T02:11:57.284Z,11.00
2023-02-08T02:14:25.922Z,13.53
2023-02-08T02:16:55.946Z,12.50
2023-02-08T02:19:34.521Z,15.37
2023-02-08T02:22:16.829Z,16.97
2023-02-08T02:25:10.720Z,12.50
2023-02-08T02:28:14.856Z,14.07
2023-02-08T02:31:13.596Z,16.20
2023-02-08T02:34:03.784Z,13.80
2023-02-08T02:36:39.316Z,11.93
2023-02-08T02:39:17.446Z,15.00
2023-02-08T02:42:12.802Z,16.70
2023-02-08T02:44:57.620Z,18.70
2023-02-08T02:47:33.648Z,15.77
2023-02-08T02:50:09.377Z,14.07
2023-02-08T02:52:45.137Z,15.67
2023-02-08T02:55:17.451Z,13.60
2023-02-08T02:57:48.646Z,16.27
2023-02-08T03:00:24.099Z,13.17
2023-02-08T03:02:53.056Z,10.67
2023-02-08T03:05:25.223Z,12.67
2023-02-08T03:08:34.759Z,11.57
2023-02-08T03:11:14.606Z,11.90
2023-02-08T03:14:02.769Z,15.90
2023-02-08T03:16:39.470Z,13.43
2023-02-08T03:19:12.700Z,15.97
2023-02-08T03:21:52.166Z,14.33
2023-02-08T03:24:28.044Z,14.73
2023-02-08T03:27:02.800Z,14.40
2023-02-08T03:29:42.909Z,18.87
2023-02-08T03:32:16.066Z,10.77
2023-02-08T03:34:50.922Z,15.20
2023-02-08T03:37:24.575Z,15.50
2023-02-08T03:39:57.700Z,14.80
2023-02-08T03:42:29.485Z,15.93
2023-02-08T03:45:00.616Z,15.87
2023-02-08T03:47:31.492Z,20.53
2023-02-08T03:50:04.016Z,13.80
2023-02-08T03:52:34.677Z,13.10
2023-02-08T03:55:05.906Z,13.23
2023-02-08T03:57:38.745Z,13.87
2023-02-08T04:00:10.381Z,14.83
2023-02-08T04:02:42.531Z,15.57
2023-02-08T04:05:11.437Z,18.53
2023-02-08T04:07:40.821Z,12.33
2023-02-08T04:10:09.501Z,15.60
2023-02-08T04:12:37.648Z,16.60
2023-02-08T04:15:06.200Z,18.90
2023-02-08T04:17:34.203Z,16.47
2023-02-08T04:20:02.250Z,16.27
2023-02-08T04:22:30.198Z,17.30
2023-02-08T04:24:59.673Z,17.07
2023-02-08T04:27:27.632Z,9.83
2023-02-08T04:29:55.543Z,16.73
2023-02-08T04:32:23.633Z,15.07
2023-02-08T04:34:51.615Z,17.37
2023-02-08T04:37:19.635Z,17.80
2023-02-08T04:39:48.196Z,13.20
2023-02-08T04:42:18.028Z,16.50
2023-02-08T04:44:45.925Z,15.83
2023-02-08T04:47:14.249Z,14.80
2023-02-08T04:49:42.370Z,13.30
2023-02-08T04:52:10.433Z,14.53
2023-02-08T04:54:40.741Z,12.03
2023-02-08T04:57:10.024Z,15.37
2023-02-08T04:59:39.473Z,16.10
2023-02-08T05:02:07.652Z,18.80
2023-02-08T05:04:35.953Z,14.53
2023-02-08T05:07:04.207Z,14.30
2023-02-08T05:09:32.565Z,12.53
2023-02-08T05:12:00.811Z,14.33
2023-02-08T05:14:29.047Z,13.87
2023-02-08T05:16:58.644Z,13.93
2023-02-08T05:19:27.485Z,19.03
2023-02-08T05:21:55.635Z,17.70
2023-02-08T05:24:23.937Z,14.37
2023-02-08T05:26:52.258Z,15.73
2023-02-08T05:29:20.482Z,17.93
2023-02-08T05:31:48.636Z,15.03
2023-02-08T05:34:18.319Z,13.27
2023-02-08T05:36:46.454Z,12.80
2023-02-08T05:41:56.373Z,19.70
2023-02-08T05:44:24.515Z,17.33
2023-02-08T05:46:52.875Z,20.10
2023-02-08T05:49:22.808Z,12.90
2023-02-08T05:51:51.560Z,16.27
2023-02-08T05:54:19.594Z,15.33
2023-02-08T05:56:47.593Z,15.47
2023-02-08T05:59:15.630Z,17.27
2023-02-08T06:01:43.585Z,15.20
2023-02-08T06:04:12.147Z,14.83
2023-02-08T06:06:42.527Z,17.47
2023-02-08T06:09:10.847Z,18.70
2023-02-08T06:11:39.179Z,18.70
2023-02-08T06:14:07.507Z,17.37
2023-02-08T06:16:36.080Z,18.77
2023-02-08T06:19:04.243Z,18.43
2023-02-08T06:21:32.607Z,16.33
2023-02-08T06:24:04.944Z,19.47
2023-02-08T06:26:58.074Z,17.73
2023-02-08T06:29:26.519Z,15.10
2023-02-08T06:31:54.848Z,26.67
2023-02-08T06:34:23.706Z,16.20
2023-02-08T06:36:51.784Z,22.60
2023-02-08T06:39:21.566Z,20.27
2023-02-08T06:41:50.043Z,16.80
2023-02-08T06:44:18.540Z,17.80
2023-02-08T06:46:48.257Z,27.07
2023-02-08T06:49:16.956Z,18.27
2023-02-08T06:51:45.276Z,17.97
2023-02-08T06:54:16.047Z,16.63
2023-02-08T06:56:45.960Z,17.57
2023-02-08T06:59:16.905Z,20.30
2023-02-08T07:02:01.424Z,18.83
2023-02-08T07:04:29.822Z,15.83
2023-02-08T07:07:03.168Z,17.17
2023-02-08T07:09:31.752Z,19.93
2023-02-08T07:12:05.034Z,18.87
2023-02-08T07:14:34.966Z,19.53
2023-02-08T07:17:05.010Z,18.47
2023-02-08T07:19:33.788Z,17.20
2023-02-08T07:22:08.515Z,19.40
2023-02-08T07:24:40.636Z,25.33
2023-02-08T07:27:13.797Z,21.00
2023-02-08T07:29:42.966Z,19.93
2023-02-08T07:32:13.627Z,19.30
2023-02-08T07:34:42.504Z,20.57
2023-02-08T07:37:11.346Z,20.13
2023-02-08T07:39:39.623Z,20.23
2023-02-08T07:42:10.363Z,16.23
2023-02-08T07:44:40.102Z,22.07
2023-02-08T07:47:11.294Z,18.60
2023-02-08T07:49:41.610Z,17.83
2023-02-08T07:52:12.389Z,17.73
2023-02-08T07:54:40.843Z,18.83
2023-02-08T07:57:11.566Z,19.10
2023-02-08T07:59:40.181Z,24.73
2023-02-08T08:02:08.629Z,16.93
2023-02-08T08:04:39.075Z,15.33
2023-02-08T08:07:07.862Z,18.30
2023-02-08T08:09:37.952Z,19.63
2023-02-08T08:12:07.149Z,20.13
2023-02-08T08:14:37.931Z,18.20
2023-02-08T08:17:07.973Z,17.77
2023-02-08T08:19:37.589Z,19.80
2023-02-08T08:22:06.599Z,20.50
2023-02-08T08:24:38.747Z,17.17
2023-02-08T08:27:10.415Z,19.37
2023-02-08T08:29:40.829Z,20.57
2023-02-08T08:32:11.766Z,30.37
2023-02-08T08:34:41.048Z,25.27
2023-02-08T08:37:12.127Z,15.90
2023-02-08T08:39:40.308Z,21.90
2023-02-08T08:42:08.549Z,18.27
2023-02-08T08:44:37.787Z,32.13
2023-02-08T08:47:07.410Z,15.87
2023-02-08T08:49:35.736Z,14.00
2023-02-08T08:52:04.021Z,16.73
2023-02-08T08:54:32.421Z,20.97
2023-02-08T08:57:04.418Z,19.07
2023-02-08T08:59:32.667Z,18.53
2023-02-08T09:02:00.868Z,18.23
2023-02-08T09:04:30.776Z,19.40
2023-02-08T09:06:58.927Z,23.87
2023-02-08T09:09:27.090Z,17.93
2023-02-08T09:12:18.009Z,22.20
2023-02-08T09:21:40.594Z,17.50
2023-02-08T09:24:21.977Z,17.80
2023-02-08T09:27:11.103Z,18.20
2023-02-08T09:30:00.821Z,21.27
2023-02-08T09:35:53.064Z,18.03
2023-02-08T09:38:38.105Z,18.83
2023-02-08T09:41:31.779Z,15.40
2023-02-08T09:44:20.157Z,15.57
2023-02-08T09:46:59.907Z,14.00
2023-02-08T09:49:36.407Z,22.33
2023-02-08T09:52:14.084Z,20.17
2023-02-08T09:55:09.176Z,17.17
2023-02-08T09:58:39.907Z,19.83
2023-02-08T10:01:29.620Z,17.40
2023-02-08T10:05:10.164Z,19.47
2023-02-08T10:07:59.748Z,15.27
2023-02-08T10:11:17.180Z,19.93
2023-02-08T10:14:20.020Z,18.90
2023-02-08T10:17:07.090Z,20.70
2023-02-08T10:23:24.594Z,17.20
2023-02-08T10:26:11.723Z,16.77
2023-02-08T10:29:02.704Z,18.17
2023-02-08T10:31:43.131Z,20.00
2023-02-08T10:34:27.733Z,17.87
2023-02-08T10:36:59.104Z,20.40
2023-02-08T10:39:30.585Z,17.17
2023-02-08T10:42:00.909Z,17.90
2023-02-08T10:44:35.995Z,16.00
2023-02-08T10:47:13.390Z,17.83
2023-02-08T10:49:48.614Z,15.27
2023-02-08T10:52:16.667Z,22.00
2023-02-08T10:54:44.725Z,15.37
2023-02-08T10:57:18.475Z,12.97
2023-02-08T10:59:53.007Z,17.07
2023-02-08T11:02:26.479Z,21.53
2023-02-08T11:05:02.773Z,19.00
2023-02-08T11:07:31.354Z,14.77
2023-02-08T11:10:26.385Z,26.23
2023-02-08T11:13:00.956Z,14.67
2023-02-08T11:15:34.215Z,17.83
2023-02-08T11:18:04.213Z,20.77
2023-02-08T11:20:36.767Z,19.03
2023-02-08T11:31:26.684Z,19.43
2023-02-08T11:34:05.905Z,18.50
2023-02-08T11:36:35.828Z,16.47
2023-02-08T11:39:16.584Z,18.40
2023-02-08T11:41:47.191Z,20.73
2023-02-08T11:44:26.163Z,20.73
2023-02-08T11:46:56.010Z,16.30
2023-02-08T11:49:26.832Z,18.03
2023-02-08T11:51:55.118Z,20.43
2023-02-08T11:54:41.672Z,19.17
2023-02-08T11:57:16.352Z,19.93
2023-02-08T11:59:46.229Z,20.20
2023-02-08T12:02:38.926Z,19.50
2023-02-08T12:05:14.960Z,20.87
2023-02-08T12:07:59.010Z,24.70
2023-02-08T12:10:57.653Z,17.67
2023-02-08T12:14:10.906Z,19.33
2023-02-08T12:16:57.809Z,19.00
2023-02-08T12:20:00.673Z,20.03
2023-02-08T12:22:29.956Z,19.40
2023-02-08T12:25:18.356Z,21.67
2023-02-08T12:27:52.944Z,19.80
2023-02-08T12:30:28.183Z,20.13
2023-02-08T12:33:17.039Z,25.13
2023-02-08T12:36:16.824Z,24.53
2023-02-08T12:39:25.740Z,22.60
2023-02-08T12:42:17.055Z,18.80
2023-02-08T12:45:00.386Z,23.00
2023-02-08T12:48:03.017Z,26.27
2023-02-08T12:50:39.805Z,21.37
2023-02-08T12:53:19.023Z,19.83
2023-02-08T12:55:49.952Z,22.63
2023-02-08T12:58:29.503Z,22.13
2023-02-08T13:01:02.592Z,24.47
2023-02-08T13:03:42.799Z,19.07
2023-02-08T13:06:19.057Z,22.50
2023-02-08T13:16:20.128Z,20.70
2023-02-08T13:20:22.455Z,20.77
2023-02-08T13:26:45.409Z,22.73
2023-02-08T13:39:30.075Z,22.30
2023-02-08T13:41:58.465Z,15.43
2023-02-08T13:44:30.649Z,18.67
2023-02-08T13:47:08.216Z,17.33
2023-02-08T13:50:04.525Z,16.20
2023-02-08T13:52:55.733Z,18.53
2023-02-08T13:56:01.374Z,17.67
2023-02-08T13:59:05.248Z,15.20
2023-02-08T14:01:36.175Z,19.53
2023-02-08T14:04:37.994Z,22.00
2023-02-08T14:07:24.144Z,17.13
2023-02-08T14:10:11.709Z,20.03
2023-02-08T14:12:45.044Z,17.37
2023-02-08T14:15:41.225Z,18.60
2023-02-08T14:18:27.187Z,16.63
2023-02-08T14:21:05.088Z,16.87
2023-02-08T14:23:38.295Z,17.23
2023-02-08T14:26:12.736Z,17.30
2023-02-08T14:28:46.145Z,16.93
2023-02-08T14:31:18.165Z,12.43
2023-02-08T14:33:54.589Z,18.80
2023-02-08T14:36:30.020Z,13.93
2023-02-08T14:39:26.180Z,19.57
2023-02-08T14:42:01.256Z,11.93
2023-02-08T14:45:05.935Z,14.70
2023-02-08T14:48:09.025Z,16.43
2023-02-08T14:50:41.476Z,16.03
2023-02-08T14:53:38.993Z,15.90
2023-02-08T14:56:17.502Z,15.93
2023-02-08T14:58:50.061Z,20.13
2023-02-08T15:01:22.274Z,12.03
2023-02-08T15:04:13.791Z,16.87
2023-02-08T15:07:24.712Z,15.50
2023-02-08T15:09:53.533Z,11.60
2023-02-08T15:12:28.575Z,15.43
2023-02-08T15:14:59.055Z,14.27
2023-02-08T15:17:35.627Z,12.67
2023-02-08T15:20:08.504Z,14.27
2023-02-08T15:22:43.216Z,14.27
2023-02-08T15:25:28.354Z,14.40
2023-02-08T15:28:02.009Z,13.67
2023-02-08T15:30:35.931Z,14.87
2023-02-08T15:33:09.993Z,13.97
2023-02-08T15:35:42.780Z,12.67
2023-02-08T15:38:19.008Z,16.03
2023-02-08T15:41:01.841Z,14.50
2023-02-08T15:43:30.197Z,14.93
2023-02-08T15:46:00.086Z,17.90
2023-02-08T15:48:30.619Z,13.87
2023-02-08T15:53:51.214Z,14.53
2023-02-08T15:56:35.922Z,18.83
2023-02-08T15:59:09.648Z,13.77
2023-02-08T16:01:39.612Z,13.10
2023-02-08T16:04:12.775Z,15.17
2023-02-08T16:07:16.062Z,11.83
2023-02-08T16:09:50.913Z,13.30
2023-02-08T16:12:23.100Z,15.50
2023-02-08T16:14:53.098Z,13.33
2023-02-08T16:17:44.169Z,14.50
2023-02-08T16:20:42.460Z,16.43
2023-02-08T16:23:30.157Z,16.13
2023-02-08T16:25:59.699Z,12.80
2023-02-08T16:28:31.710Z,17.57
2023-02-08T16:31:02.934Z,17.73
2023-02-08T16:33:35.002Z,11.93
2023-02-08T16:36:04.924Z,14.00
2023-02-08T16:38:49.874Z,17.13
2023-02-08T16:41:25.810Z,13.00
2023-02-08T16:44:17.535Z,19.23
2023-02-08T16:46:46.678Z,16.93
2023-02-08T16:51:53.459Z,13.97
2023-02-08T16:54:27.570Z,13.73
2023-02-08T16:57:01.052Z,13.73
2023-02-08T16:59:29.600Z,9.93
2023-02-08T17:01:57.945Z,17.73
2023-02-08T17:04:27.341Z,12.40
2023-02-08T17:06:58.867Z,14.20
2023-02-08T17:09:28.684Z,17.77
2023-02-08T17:11:57.049Z,15.07
2023-02-08T17:14:25.316Z,14.60
2023-02-08T17:16:53.773Z,18.00
2023-02-08T17:19:23.299Z,14.27
2023-02-08T17:21:54.337Z,26.00
2023-02-08T17:24:33.320Z,15.63
2023-02-08T17:30:09.291Z,17.20
2023-02-08T17:32:37.509Z,16.57
2023-02-08T17:35:06.106Z,12.60
2023-02-08T17:37:34.414Z,14.07
2023-02-08T17:40:02.647Z,13.63
2023-02-08T17:42:32.510Z,14.90
2023-02-08T17:45:00.926Z,13.87
2023-02-08T17:47:30.585Z,13.73
2023-02-08T17:49:58.785Z,13.13
2023-02-08T17:52:27.331Z,12.53
2023-02-08T17:54:57.382Z,13.30
2023-02-08T17:57:47.230Z,18.37
2023-02-08T18:00:17.376Z,14.33
2023-02-08T18:02:48.120Z,19.07
2023-02-08T18:05:16.973Z,12.80
2023-02-08T18:07:45.067Z,14.53
2023-02-08T18:10:14.457Z,15.87
2023-02-08T18:12:51.615Z,15.27
2023-02-08T18:15:37.120Z,16.83
2023-02-08T18:18:35.239Z,14.97
2023-02-08T18:37:51.472Z,16.30
2023-02-08T18:40:26.140Z,12.13
2023-02-08T18:45:54.468Z,13.00
2023-02-08T18:48:23.893Z,16.40
2023-02-08T19:26:49.794Z,11.80
2023-02-08T19:29:56.572Z,14.47
2023-02-08T19:32:53.727Z,13.73
2023-02-08T19:35:24.896Z,12.10
2023-02-08T19:37:53.419Z,11.50
2023-02-08T19:40:23.666Z,13.30
2023-02-08T19:42:53.104Z,13.17
2023-02-08T19:45:21.815Z,15.70
2023-02-08T19:47:52.017Z,13.07
2023-02-08T19:50:20.327Z,18.33
2023-02-08T19:52:48.625Z,12.47
2023-02-08T19:55:17.036Z,13.80
2023-02-08T19:57:47.841Z,12.03
2023-02-08T20:00:23.372Z,13.60
2023-02-08T20:02:53.694Z,14.27
2023-02-08T20:05:22.060Z,12.93
2023-02-08T20:07:50.245Z,13.30
2023-02-08T20:10:18.944Z,17.93
2023-02-08T20:12:47.136Z,12.23
2023-02-08T20:15:15.598Z,13.33
2023-02-08T20:17:44.903Z,13.40
2023-02-08T20:20:14.900Z,10.53
2023-02-08T20:22:52.700Z,14.87
2023-02-08T20:25:20.656Z,10.70
2023-02-08T20:27:53.951Z,13.13
2023-02-08T20:30:22.857Z,13.53
2023-02-08T20:32:50.899Z,14.83
2023-02-08T20:35:21.197Z,12.70
2023-02-08T20:37:49.646Z,10.70
2023-02-08T20:40:18.206Z,11.70
2023-02-08T20:45:28.511Z,11.37
2023-02-08T20:47:56.906Z,12.50
2023-02-08T20:50:27.826Z,9.43
2023-02-08T20:52:59.080Z,11.07
2023-02-08T20:55:27.507Z,12.23
2023-02-08T20:57:55.580Z,12.10
2023-02-08T21:00:26.055Z,8.70
2023-02-08T21:03:03.249Z,9.37
2023-02-08T21:05:32.822Z,10.23
2023-02-08T21:08:01.259Z,9.60
2023-02-08T21:10:29.401Z,14.20
2023-02-08T21:12:57.581Z,10.53
2023-02-08T21:15:25.857Z,7.43
2023-02-08T21:17:54.056Z,12.63
2023-02-08T21:20:22.883Z,14.47
2023-02-08T21:22:52.526Z,9.50
2023-02-08T21:25:20.593Z,11.80
2023-02-08T21:27:48.640Z,8.80
2023-02-08T21:30:16.620Z,12.03
2023-02-08T21:32:44.605Z,11.90
2023-02-08T21:35:12.634Z,9.37
2023-02-08T21:37:40.643Z,9.03
2023-02-08T21:40:10.657Z,11.30
2023-02-08T21:42:38.716Z,10.87
2023-02-08T21:45:09.029Z,12.93
2023-02-08T21:47:38.014Z,8.53
2023-02-08T21:50:23.873Z,8.83
2023-02-08T21:53:09.320Z,8.27
2023-02-08T21:55:38.712Z,7.90
2023-02-08T21:58:06.679Z,9.00
2023-02-08T22:00:34.716Z,7.00
2023-02-08T22:03:02.786Z,9.20
2023-02-08T22:05:42.742Z,9.37
2023-02-08T22:08:10.689Z,8.67
2023-02-08T22:10:42.835Z,9.43
2023-02-08T22:13:15.345Z,11.00
2023-02-08T22:15:43.492Z,11.20
2023-02-08T22:18:11.685Z,10.40
2023-02-08T22:20:39.813Z,11.30
2023-02-08T22:23:07.824Z,10.17
2023-02-08T22:25:35.956Z,8.57
2023-02-08T22:28:06.546Z,9.93
2023-02-08T22:30:34.789Z,9.67
2023-02-08T22:33:03.109Z,8.67
2023-02-08T22:35:31.378Z,14.13
2023-02-08T22:37:59.549Z,11.07
2023-02-08T22:40:27.539Z,13.27
2023-02-08T22:42:55.579Z,8.73
2023-02-08T22:45:25.051Z,9.80
2023-02-08T22:47:53.130Z,8.33
2023-02-08T22:50:21.350Z,9.53
2023-02-08T22:52:49.393Z,10.40
2023-02-08T22:55:17.602Z,11.23
2023-02-08T22:57:45.702Z,6.03
2023-02-08T23:00:16.022Z,9.33
2023-02-08T23:02:45.655Z,10.77
2023-02-08T23:05:14.490Z,8.23
2023-02-08T23:07:42.626Z,8.80
2023-02-08T23:10:11.959Z,7.40
2023-02-08T23:12:40.378Z,11.07
2023-02-08T23:15:08.878Z,8.70
2023-02-08T23:17:37.408Z,10.90
2023-02-08T23:20:07.615Z,8.43
2023-02-08T23:22:37.659Z,8.27
2023-02-08T23:25:06.493Z,7.50
2023-02-08T23:27:34.547Z,5.60
2023-02-08T23:30:02.601Z,13.17
2023-02-08T23:32:30.635Z,8.27
2023-02-08T23:34:59.519Z,7.53
2023-02-08T23:37:29.138Z,6.67
2023-02-08T23:39:58.217Z,9.70
2023-02-08T23:42:29.158Z,8.60
2023-02-08T23:44:59.742Z,10.67
2023-02-08T23:47:29.643Z,9.43
2023-02-08T23:49:57.902Z,8.33
2023-02-08T23:52:25.948Z,10.07
2023-02-08T23:54:55.427Z,7.60
2023-02-08T23:57:23.610Z,7.40
2023-02-08T23:59:51.754Z,9.77
